createdAt,value
2023-05-19T00:01:00.594Z,2.65
2023-05-19T00:03:41.655Z,2.33
2023-05-19T00:06:12.056Z,2.53
2023-05-19T00:08:39.577Z,2.80
2023-05-19T00:11:07.338Z,2.38
2023-05-19T00:13:34.689Z,2.80
2023-05-19T00:16:02.477Z,2.80
2023-05-19T00:18:29.964Z,2.47
2023-05-19T00:20:59.460Z,2.88
2023-05-19T00:23:29.393Z,2.40
2023-05-19T00:25:56.603Z,2.50
2023-05-19T00:28:23.843Z,2.70
2023-05-19T00:30:51.997Z,2.40
2023-05-19T00:33:19.358Z,2.65
2023-05-19T00:35:46.578Z,2.78
2023-05-19T00:38:13.720Z,2.78
2023-05-19T00:40:42.447Z,2.63
2023-05-19T00:43:10.682Z,3.08
2023-05-19T00:45:40.119Z,3.17
2023-05-19T00:48:07.629Z,2.67
2023-05-19T00:51:07.398Z,3.03
2023-05-19T01:01:09.801Z,2.80
2023-05-19T01:11:45.158Z,2.75
2023-05-19T01:14:35.708Z,2.92
2023-05-19T01:17:46.491Z,2.53
2023-05-19T01:21:41.455Z,3.05
2023-05-19T01:26:30.479Z,3.17
2023-05-19T01:44:55.699Z,3.17
2023-05-19T01:50:58.064Z,3.05
2023-05-19T01:53:38.804Z,3.50
2023-05-19T02:00:50.410Z,2.83
2023-05-19T02:07:59.068Z,2.97
2023-05-19T02:14:01.855Z,2.97
2023-05-19T02:29:38.163Z,3.20
2023-05-19T02:50:53.744Z,2.70
2023-05-19T03:07:29.834Z,3.03
2023-05-19T03:16:16.600Z,3.13
2023-05-19T03:25:53.002Z,3.22
2023-05-19T03:28:58.847Z,2.80
2023-05-19T03:35:34.013Z,2.90
2023-05-19T03:37:26.658Z,2.88
2023-05-19T03:39:19.241Z,2.97
2023-05-19T03:43:03.104Z,3.08
2023-05-19T03:50:38.751Z,2.55
2023-05-19T03:57:38.928Z,3.00
2023-05-19T04:00:26.554Z,2.80
2023-05-19T04:06:24.735Z,2.60
2023-05-19T04:06:27.743Z,3.40
2023-05-19T04:11:57.332Z,3.05
2023-05-19T04:15:11.597Z,3.05
2023-05-19T04:21:11.758Z,2.78
2023-05-19T04:24:38.925Z,2.70
2023-05-19T04:31:48.479Z,2.97
2023-05-19T04:35:10.052Z,3.03
2023-05-19T04:38:29.241Z,3.00
2023-05-19T04:41:27.607Z,3.42
2023-05-19T04:51:34.330Z,4.22
2023-05-19T04:54:13.028Z,3.72
2023-05-19T04:58:26.026Z,4.13
2023-05-19T05:11:08.880Z,4.10
2023-05-19T05:13:47.303Z,3.80
2023-05-19T05:20:12.914Z,3.25
2023-05-19T05:23:41.847Z,3.95
2023-05-19T05:30:04.215Z,3.75
2023-05-19T05:36:46.677Z,3.65
2023-05-19T05:39:34.369Z,3.20
2023-05-19T05:42:49.049Z,2.70
2023-05-19T06:12:36.466Z,2.90
2023-05-19T06:19:33.457Z,2.80
2023-05-19T06:22:12.431Z,2.90
2023-05-19T06:35:20.677Z,3.00
2023-05-19T06:52:45.563Z,3.30
2023-05-19T06:57:58.500Z,2.88
2023-05-19T06:58:37.943Z,3.10
2023-05-19T07:01:06.036Z,2.90
2023-05-19T07:03:41.572Z,2.75
2023-05-19T07:06:17.226Z,2.75
2023-05-19T07:08:55.611Z,3.17
2023-05-19T07:14:06.434Z,2.90
2023-05-19T07:16:34.081Z,2.72
2023-05-19T07:19:27.457Z,2.70
2023-05-19T07:24:51.276Z,3.00
2023-05-19T07:30:53.395Z,3.22
2023-05-19T07:33:46.301Z,3.30
2023-05-19T07:36:19.088Z,3.30
2023-05-19T07:38:48.425Z,3.30
2023-05-19T07:41:27.350Z,3.20
2023-05-19T07:44:08.942Z,2.92
2023-05-19T07:49:50.401Z,3.20
2023-05-19T08:09:52.650Z,2.92
2023-05-19T08:28:24.538Z,2.95
2023-05-19T08:31:23.146Z,2.22
2023-05-19T08:39:56.764Z,3.08
2023-05-19T08:42:59.784Z,3.00
2023-05-19T08:49:37.211Z,2.40
2023-05-19T08:56:41.744Z,2.20
2023-05-19T09:09:40.960Z,2.53
2023-05-19T09:21:48.597Z,2.75
2023-05-19T09:24:17.687Z,3.10
2023-05-19T09:26:48.513Z,2.75
2023-05-19T09:29:34.631Z,2.95
2023-05-19T09:32:17.245Z,3.00
2023-05-19T09:37:28.619Z,2.90
2023-05-19T09:40:00.182Z,2.47
2023-05-19T09:42:28.398Z,2.80
2023-05-19T09:45:06.236Z,2.95
2023-05-19T09:47:49.196Z,3.40
2023-05-19T09:50:17.302Z,3.20
2023-05-19T09:52:58.526Z,3.65
2023-05-19T09:55:31.074Z,3.30
2023-05-19T10:00:43.153Z,3.70
2023-05-19T10:03:14.731Z,3.90
2023-05-19T10:08:25.586Z,3.53
2023-05-19T10:10:56.365Z,3.20
2023-05-19T10:16:13.821Z,3.70
2023-05-19T10:18:41.365Z,4.28
2023-05-19T10:21:21.481Z,3.78
2023-05-19T10:23:52.823Z,3.95
2023-05-19T10:26:23.717Z,4.38
2023-05-19T10:28:56.958Z,4.00
2023-05-19T10:31:27.689Z,4.00
2023-05-19T10:34:00.568Z,4.75
2023-05-19T10:37:10.496Z,4.38
2023-05-19T10:39:43.547Z,4.07
2023-05-19T10:42:28.368Z,3.80
2023-05-19T10:45:25.654Z,4.35
2023-05-19T10:47:54.288Z,3.83
2023-05-19T10:50:27.633Z,4.15
2023-05-19T10:52:56.890Z,4.22
2023-05-19T10:55:49.246Z,4.50
2023-05-19T10:58:54.776Z,4.32
2023-05-19T11:01:39.127Z,4.72
2023-05-19T11:04:16.094Z,4.68
2023-05-19T11:06:51.838Z,5.63
2023-05-19T11:09:22.569Z,4.95
2023-05-19T11:12:03.899Z,5.30
2023-05-19T11:14:38.057Z,4.88
2023-05-19T11:17:25.007Z,5.20
2023-05-19T11:20:05.842Z,5.15
2023-05-19T11:22:36.041Z,5.13
2023-05-19T11:25:04.463Z,4.95
2023-05-19T11:27:42.742Z,5.03
2023-05-19T11:30:18.125Z,4.70
2023-05-19T11:32:49.139Z,5.32
2023-05-19T11:35:21.530Z,5.35
2023-05-19T11:37:51.791Z,5.10
2023-05-19T11:40:19.520Z,5.03
2023-05-19T11:42:51.639Z,4.63
2023-05-19T11:45:27.710Z,4.60
2023-05-19T11:48:04.120Z,4.20
2023-05-19T11:50:39.894Z,3.95
2023-05-19T11:53:21.144Z,4.10
2023-05-19T11:55:50.440Z,4.30
2023-05-19T11:58:28.017Z,3.83
2023-05-19T12:01:06.487Z,4.30
2023-05-19T12:03:35.872Z,4.05
2023-05-19T12:06:09.854Z,4.22
2023-05-19T12:11:26.734Z,4.45
2023-05-19T12:13:59.219Z,4.95
2023-05-19T12:16:41.462Z,4.68
2023-05-19T12:19:08.781Z,4.40
2023-05-19T12:21:36.145Z,4.55
2023-05-19T12:24:06.004Z,4.35
2023-05-19T12:26:35.786Z,4.35
2023-05-19T12:29:30.796Z,4.20
2023-05-19T12:32:00.820Z,3.95
2023-05-19T12:34:33.888Z,3.58
2023-05-19T12:39:50.749Z,3.78
2023-05-19T12:42:23.311Z,3.58
2023-05-19T12:45:06.326Z,3.63
2023-05-19T12:47:37.389Z,3.75
2023-05-19T12:53:00.630Z,3.78
2023-05-19T12:55:55.822Z,4.15
2023-05-19T12:58:28.939Z,4.00
2023-05-19T13:01:01.633Z,3.97
2023-05-19T13:03:43.262Z,3.95
2023-05-19T13:06:12.743Z,3.65
2023-05-19T13:08:43.467Z,3.45
2023-05-19T13:20:44.609Z,4.55
2023-05-19T13:23:12.794Z,4.30
2023-05-19T13:25:41.376Z,3.92
2023-05-19T13:28:08.981Z,4.18
2023-05-19T13:30:38.650Z,3.50
2023-05-19T13:33:11.460Z,3.90
2023-05-19T13:35:44.337Z,3.75
2023-05-19T13:38:15.768Z,3.55
2023-05-19T13:40:44.649Z,3.75
2023-05-19T13:43:14.200Z,3.63
2023-05-19T13:45:44.776Z,3.72
2023-05-19T13:48:12.337Z,3.85
2023-05-19T13:50:41.139Z,4.10
2023-05-19T13:53:18.662Z,4.07
2023-05-19T13:55:52.998Z,3.43
2023-05-19T13:58:20.255Z,4.00
2023-05-19T14:00:47.532Z,3.63
2023-05-19T14:03:20.136Z,3.72
2023-05-19T14:05:52.728Z,3.85
2023-05-19T14:08:24.692Z,3.53
2023-05-19T14:10:56.478Z,3.90
2023-05-19T14:13:33.694Z,3.70
2023-05-19T14:16:02.769Z,3.40
2023-05-19T14:18:32.582Z,3.70
2023-05-19T14:20:59.563Z,3.60
2023-05-19T14:23:27.918Z,4.40
2023-05-19T14:25:54.980Z,4.38
2023-05-19T14:28:23.565Z,4.10
2023-05-19T14:30:51.243Z,3.90
2023-05-19T14:33:19.730Z,4.13
2023-05-19T14:35:49.623Z,4.68
2023-05-19T14:38:17.749Z,3.53
2023-05-19T14:40:46.038Z,3.70
2023-05-19T14:43:13.116Z,3.55
2023-05-19T14:45:42.112Z,3.42
2023-05-19T14:48:10.955Z,3.35
2023-05-19T14:50:39.046Z,3.25
2023-05-19T14:53:06.168Z,3.60
2023-05-19T14:55:33.395Z,3.63
2023-05-19T14:58:00.659Z,3.50
2023-05-19T15:00:27.832Z,3.30
2023-05-19T15:02:55.394Z,3.25
2023-05-19T15:05:28.824Z,3.30
2023-05-19T15:07:56.675Z,3.42
2023-05-19T15:10:27.117Z,3.25
2023-05-19T15:12:58.648Z,3.20
2023-05-19T15:15:25.889Z,3.47
2023-05-19T15:17:55.521Z,3.28
2023-05-19T15:20:23.653Z,2.95
2023-05-19T15:22:55.160Z,5.55
2023-05-19T15:25:23.294Z,3.85
2023-05-19T15:27:55.462Z,3.33
2023-05-19T15:30:23.353Z,3.58
2023-05-19T15:32:52.495Z,3.45
2023-05-19T15:38:07.285Z,3.50
2023-05-19T15:40:36.660Z,3.80
2023-05-19T15:43:09.281Z,3.38
2023-05-19T15:45:37.581Z,3.30
2023-05-19T15:48:05.337Z,3.25
2023-05-19T15:50:34.486Z,3.83
2023-05-19T15:53:04.122Z,3.83
2023-05-19T15:55:32.905Z,3.80
2023-05-19T15:58:03.225Z,4.00
2023-05-19T16:00:30.435Z,4.30
2023-05-19T16:03:00.333Z,3.97
2023-05-19T16:05:27.553Z,4.32
2023-05-19T16:07:56.615Z,4.25
2023-05-19T16:10:23.668Z,4.10
2023-05-19T16:12:50.701Z,4.25
2023-05-19T16:15:18.044Z,4.25
2023-05-19T16:17:45.188Z,4.38
2023-05-19T16:20:13.390Z,4.47
2023-05-19T16:22:40.507Z,4.70
2023-05-19T16:25:08.121Z,4.80
2023-05-19T16:27:36.587Z,4.47
2023-05-19T16:30:03.741Z,4.70
2023-05-19T16:32:32.958Z,4.07
2023-05-19T16:35:01.706Z,4.35
2023-05-19T16:37:28.645Z,4.30
2023-05-19T16:39:58.630Z,4.35
2023-05-19T16:42:33.569Z,5.20
2023-05-19T16:45:33.430Z,4.47
2023-05-19T16:48:05.680Z,4.32
2023-05-19T16:50:36.010Z,4.57
2023-05-19T16:53:16.864Z,4.50
2023-05-19T16:55:59.010Z,4.32
2023-05-19T16:58:36.293Z,4.05
2023-05-19T17:01:08.451Z,4.43
2023-05-19T17:06:23.827Z,4.90
2023-05-19T17:11:51.584Z,5.07
2023-05-19T17:14:36.988Z,4.90
2023-05-19T17:17:19.956Z,5.40
2023-05-19T17:22:31.932Z,5.03
2023-05-19T17:25:16.038Z,5.45
2023-05-19T17:28:00.740Z,5.85
2023-05-19T17:30:33.437Z,5.95
2023-05-19T17:33:29.704Z,5.50
2023-05-19T17:36:03.593Z,5.47
2023-05-19T17:38:34.739Z,5.30
2023-05-19T17:41:04.410Z,6.07
2023-05-19T17:43:32.907Z,5.22
2023-05-19T17:46:07.548Z,6.10
2023-05-19T17:48:36.491Z,6.22
2023-05-19T17:51:13.678Z,5.90
2023-05-19T17:53:43.065Z,5.65
2023-05-19T17:56:12.698Z,5.90
2023-05-19T17:59:12.930Z,6.10
2023-05-19T18:01:41.044Z,6.47
2023-05-19T18:10:09.882Z,10.35
2023-05-19T18:14:01.993Z,11.02
2023-05-19T18:16:38.782Z,8.55
2023-05-19T18:26:40.358Z,6.85
2023-05-19T19:39:52.297Z,5.97
2023-05-19T19:42:28.771Z,5.80
2023-05-19T19:45:04.880Z,5.82
2023-05-19T19:47:52.854Z,6.35
2023-05-19T19:50:29.758Z,5.82
2023-05-19T19:53:02.227Z,5.45
2023-05-19T19:55:32.261Z,3.85
2023-05-19T19:58:04.418Z,3.60
2023-05-19T20:00:47.050Z,4.13
2023-05-19T20:03:21.754Z,3.63
2023-05-19T20:08:43.611Z,3.20
2023-05-19T20:11:20.247Z,3.47
2023-05-19T20:17:40.140Z,3.22
